sensor_id;sensor_type;location;lat;lon;timestamp;P1;durP1;ratioP1;P2;durP2;ratioP2
47760;SDS011;33524;55.434;38.520;2024-01-30T00:00:20;17.60;;;9.52;;
47760;SDS011;33524;55.434;38.520;2024-01-30T00:02:49;16.02;;;9.65;;
47760;SDS011;33524;55.434;38.520;2024-01-30T00:05:17;15.02;;;9.38;;
47760;SDS011;33524;55.434;38.520;2024-01-30T00:07:45;16.58;;;8.80;;
47760;SDS011;33524;55.434;38.520;2024-01-30T00:10:17;17.77;;;8.65;;
47760;SDS011;33524;55.434;38.520;2024-01-30T00:12:45;17.67;;;9.13;;
47760;SDS011;33524;55.434;38.520;2024-01-30T00:15:13;18.87;;;11.00;;
47760;SDS011;33524;55.434;38.520;2024-01-30T00:17:42;14.73;;;8.13;;
47760;SDS011;33524;55.434;38.520;2024-01-30T00:20:10;19.80;;;10.63;;
47760;SDS011;33524;55.434;38.520;2024-01-30T00:22:38;22.90;;;12.90;;
47760;SDS011;33524;55.434;38.520;2024-01-30T00:25:07;17.90;;;10.50;;
47760;SDS011;33524;55.434;38.520;2024-01-30T00:27:35;20.55;;;12.48;;
47760;SDS011;33524;55.434;38.520;2024-01-30T00:30:06;16.10;;;10.32;;
47760;SDS011;33524;55.434;38.520;2024-01-30T00:32:37;22.73;;;10.98;;
47760;SDS011;33524;55.434;38.520;2024-01-30T00:35:06;16.92;;;8.73;;
47760;SDS011;33524;55.434;38.520;2024-01-30T00:37:34;18.85;;;10.73;;
47760;SDS011;33524;55.434;38.520;2024-01-30T00:40:02;16.87;;;9.50;;
47760;SDS011;33524;55.434;38.520;2024-01-30T00:42:31;18.08;;;9.57;;
47760;SDS011;33524;55.434;38.520;2024-01-30T00:44:59;22.00;;;11.12;;
47760;SDS011;33524;55.434;38.520;2024-01-30T00:47:30;18.35;;;8.82;;
47760;SDS011;33524;55.434;38.520;2024-01-30T00:50:00;18.52;;;8.82;;
47760;SDS011;33524;55.434;38.520;2024-01-30T00:52:29;19.37;;;9.93;;
47760;SDS011;33524;55.434;38.520;2024-01-30T00:54:57;19.48;;;8.98;;
47760;SDS011;33524;55.434;38.520;2024-01-30T00:57:25;21.73;;;10.90;;
47760;SDS011;33524;55.434;38.520;2024-01-30T00:59:54;18.45;;;9.20;;
47760;SDS011;33524;55.434;38.520;2024-01-30T01:02:22;19.42;;;9.55;;
47760;SDS011;33524;55.434;38.520;2024-01-30T01:04:50;19.83;;;10.55;;
47760;SDS011;33524;55.434;38.520;2024-01-30T01:07:19;20.50;;;9.68;;
47760;SDS011;33524;55.434;38.520;2024-01-30T01:09:47;14.65;;;9.63;;
47760;SDS011;33524;55.434;38.520;2024-01-30T01:12:15;18.35;;;10.60;;
47760;SDS011;33524;55.434;38.520;2024-01-30T01:14:43;17.67;;;11.48;;
47760;SDS011;33524;55.434;38.520;2024-01-30T01:17:11;16.15;;;10.18;;
47760;SDS011;33524;55.434;38.520;2024-01-30T01:19:43;22.30;;;11.75;;
47760;SDS011;33524;55.434;38.520;2024-01-30T01:22:11;20.00;;;9.40;;
47760;SDS011;33524;55.434;38.520;2024-01-30T01:24:39;15.35;;;8.95;;
47760;SDS011;33524;55.434;38.520;2024-01-30T01:27:07;17.17;;;10.82;;
47760;SDS011;33524;55.434;38.520;2024-01-30T01:29:36;14.57;;;7.82;;
47760;SDS011;33524;55.434;38.520;2024-01-30T01:32:05;19.42;;;10.77;;
47760;SDS011;33524;55.434;38.520;2024-01-30T01:34:33;20.52;;;10.82;;
47760;SDS011;33524;55.434;38.520;2024-01-30T01:37:02;17.62;;;8.85;;
47760;SDS011;33524;55.434;38.520;2024-01-30T01:39:31;22.70;;;13.32;;
47760;SDS011;33524;55.434;38.520;2024-01-30T01:41:59;20.98;;;11.18;;
47760;SDS011;33524;55.434;38.520;2024-01-30T01:44:27;16.17;;;9.20;;
47760;SDS011;33524;55.434;38.520;2024-01-30T01:46:56;16.60;;;10.20;;
47760;SDS011;33524;55.434;38.520;2024-01-30T01:49:25;15.10;;;8.50;;
47760;SDS011;33524;55.434;38.520;2024-01-30T01:51:55;19.05;;;10.35;;
47760;SDS011;33524;55.434;38.520;2024-01-30T01:54:26;19.85;;;10.93;;
47760;SDS011;33524;55.434;38.520;2024-01-30T01:56:56;19.55;;;12.13;;
47760;SDS011;33524;55.434;38.520;2024-01-30T01:59:24;13.02;;;9.10;;
47760;SDS011;33524;55.434;38.520;2024-01-30T02:01:54;16.92;;;9.63;;
47760;SDS011;33524;55.434;38.520;2024-01-30T02:04:23;19.10;;;9.77;;
47760;SDS011;33524;55.434;38.520;2024-01-30T02:06:51;19.58;;;10.25;;
47760;SDS011;33524;55.434;38.520;2024-01-30T02:09:20;19.73;;;10.82;;
47760;SDS011;33524;55.434;38.520;2024-01-30T02:11:48;16.08;;;11.02;;
47760;SDS011;33524;55.434;38.520;2024-01-30T02:14:16;15.98;;;10.65;;
47760;SDS011;33524;55.434;38.520;2024-01-30T02:16:44;18.45;;;11.43;;
47760;SDS011;33524;55.434;38.520;2024-01-30T02:19:13;14.50;;;8.43;;
47760;SDS011;33524;55.434;38.520;2024-01-30T02:21:43;17.50;;;9.15;;
47760;SDS011;33524;55.434;38.520;2024-01-30T02:24:16;16.80;;;9.55;;
47760;SDS011;33524;55.434;38.520;2024-01-30T02:26:44;18.27;;;9.82;;
47760;SDS011;33524;55.434;38.520;2024-01-30T02:29:14;15.60;;;8.50;;
47760;SDS011;33524;55.434;38.520;2024-01-30T02:31:42;17.17;;;8.50;;
47760;SDS011;33524;55.434;38.520;2024-01-30T02:34:10;20.08;;;9.07;;
47760;SDS011;33524;55.434;38.520;2024-01-30T02:36:38;18.48;;;9.07;;
47760;SDS011;33524;55.434;38.520;2024-01-30T02:39:11;15.55;;;8.80;;
47760;SDS011;33524;55.434;38.520;2024-01-30T02:41:39;22.50;;;12.05;;
47760;SDS011;33524;55.434;38.520;2024-01-30T02:44:07;16.75;;;9.35;;
47760;SDS011;33524;55.434;38.520;2024-01-30T02:46:35;16.10;;;9.48;;
47760;SDS011;33524;55.434;38.520;2024-01-30T02:49:04;20.65;;;11.30;;
47760;SDS011;33524;55.434;38.520;2024-01-30T02:51:32;18.52;;;11.05;;
47760;SDS011;33524;55.434;38.520;2024-01-30T02:54:01;14.82;;;9.00;;
47760;SDS011;33524;55.434;38.520;2024-01-30T02:56:30;17.52;;;9.88;;
47760;SDS011;33524;55.434;38.520;2024-01-30T02:58:58;21.52;;;13.20;;
47760;SDS011;33524;55.434;38.520;2024-01-30T03:01:26;21.17;;;11.90;;
47760;SDS011;33524;55.434;38.520;2024-01-30T03:03:54;17.45;;;10.02;;
47760;SDS011;33524;55.434;38.520;2024-01-30T03:06:23;16.12;;;8.93;;
47760;SDS011;33524;55.434;38.520;2024-01-30T03:08:51;16.92;;;9.13;;
47760;SDS011;33524;55.434;38.520;2024-01-30T03:11:19;17.80;;;10.15;;
47760;SDS011;33524;55.434;38.520;2024-01-30T03:13:47;15.52;;;9.45;;
47760;SDS011;33524;55.434;38.520;2024-01-30T03:16:16;14.10;;;9.05;;
47760;SDS011;33524;55.434;38.520;2024-01-30T03:18:44;16.27;;;8.10;;
47760;SDS011;33524;55.434;38.520;2024-01-30T03:21:12;13.85;;;8.35;;
47760;SDS011;33524;55.434;38.520;2024-01-30T03:23:40;17.40;;;9.68;;
47760;SDS011;33524;55.434;38.520;2024-01-30T03:26:08;15.05;;;7.97;;
47760;SDS011;33524;55.434;38.520;2024-01-30T03:28:38;18.27;;;10.82;;
47760;SDS011;33524;55.434;38.520;2024-01-30T03:31:06;18.20;;;10.93;;
47760;SDS011;33524;55.434;38.520;2024-01-30T03:33:38;14.27;;;7.62;;
47760;SDS011;33524;55.434;38.520;2024-01-30T03:36:06;16.77;;;9.98;;
47760;SDS011;33524;55.434;38.520;2024-01-30T03:38:39;17.87;;;9.57;;
47760;SDS011;33524;55.434;38.520;2024-01-30T03:41:07;17.83;;;10.10;;
47760;SDS011;33524;55.434;38.520;2024-01-30T03:43:37;13.95;;;8.68;;
47760;SDS011;33524;55.434;38.520;2024-01-30T03:46:05;17.67;;;10.15;;
47760;SDS011;33524;55.434;38.520;2024-01-30T03:48:33;17.45;;;10.90;;
47760;SDS011;33524;55.434;38.520;2024-01-30T03:51:02;15.05;;;9.20;;
47760;SDS011;33524;55.434;38.520;2024-01-30T03:53:30;14.57;;;8.82;;
47760;SDS011;33524;55.434;38.520;2024-01-30T03:55:58;17.17;;;9.80;;
47760;SDS011;33524;55.434;38.520;2024-01-30T03:58:26;18.85;;;11.18;;
47760;SDS011;33524;55.434;38.520;2024-01-30T04:00:54;19.95;;;10.02;;
47760;SDS011;33524;55.434;38.520;2024-01-30T04:03:23;14.35;;;9.35;;
47760;SDS011;33524;55.434;38.520;2024-01-30T04:05:52;17.33;;;11.00;;
47760;SDS011;33524;55.434;38.520;2024-01-30T04:08:20;21.25;;;11.98;;
47760;SDS011;33524;55.434;38.520;2024-01-30T04:10:49;16.23;;;9.05;;
47760;SDS011;33524;55.434;38.520;2024-01-30T04:13:17;19.20;;;12.13;;
47760;SDS011;33524;55.434;38.520;2024-01-30T04:15:45;16.20;;;9.95;;
47760;SDS011;33524;55.434;38.520;2024-01-30T04:18:14;16.60;;;11.63;;
47760;SDS011;33524;55.434;38.520;2024-01-30T04:20:42;15.65;;;9.80;;
47760;SDS011;33524;55.434;38.520;2024-01-30T04:23:10;17.70;;;10.18;;
47760;SDS011;33524;55.434;38.520;2024-01-30T04:25:38;15.25;;;7.95;;
47760;SDS011;33524;55.434;38.520;2024-01-30T04:28:06;16.08;;;9.02;;
47760;SDS011;33524;55.434;38.520;2024-01-30T04:30:35;17.12;;;10.35;;
47760;SDS011;33524;55.434;38.520;2024-01-30T04:33:03;20.60;;;11.93;;
47760;SDS011;33524;55.434;38.520;2024-01-30T04:35:31;17.10;;;10.13;;
47760;SDS011;33524;55.434;38.520;2024-01-30T04:38:03;19.25;;;11.60;;
47760;SDS011;33524;55.434;38.520;2024-01-30T04:40:32;20.55;;;12.35;;
47760;SDS011;33524;55.434;38.520;2024-01-30T04:43:00;24.63;;;14.23;;
47760;SDS011;33524;55.434;38.520;2024-01-30T04:45:28;21.77;;;12.77;;
47760;SDS011;33524;55.434;38.520;2024-01-30T04:47:57;19.10;;;10.38;;
47760;SDS011;33524;55.434;38.520;2024-01-30T04:50:25;23.42;;;12.95;;
47760;SDS011;33524;55.434;38.520;2024-01-30T04:52:54;16.77;;;9.73;;
47760;SDS011;33524;55.434;38.520;2024-01-30T04:55:22;15.38;;;9.60;;
47760;SDS011;33524;55.434;38.520;2024-01-30T04:57:50;15.68;;;9.70;;
47760;SDS011;33524;55.434;38.520;2024-01-30T05:00:19;14.27;;;8.00;;
47760;SDS011;33524;55.434;38.520;2024-01-30T05:02:47;16.52;;;9.27;;
47760;SDS011;33524;55.434;38.520;2024-01-30T05:05:15;19.45;;;13.07;;
47760;SDS011;33524;55.434;38.520;2024-01-30T05:07:44;16.60;;;9.88;;
47760;SDS011;33524;55.434;38.520;2024-01-30T05:10:12;19.15;;;11.45;;
47760;SDS011;33524;55.434;38.520;2024-01-30T05:12:40;16.77;;;9.98;;
47760;SDS011;33524;55.434;38.520;2024-01-30T05:15:08;19.95;;;11.98;;
47760;SDS011;33524;55.434;38.520;2024-01-30T05:17:37;17.12;;;10.20;;
47760;SDS011;33524;55.434;38.520;2024-01-30T05:20:05;19.60;;;11.68;;
47760;SDS011;33524;55.434;38.520;2024-01-30T05:22:35;19.35;;;11.18;;
47760;SDS011;33524;55.434;38.520;2024-01-30T05:25:04;16.40;;;9.98;;
47760;SDS011;33524;55.434;38.520;2024-01-30T05:27:36;19.00;;;11.45;;
47760;SDS011;33524;55.434;38.520;2024-01-30T05:30:05;17.80;;;10.57;;
47760;SDS011;33524;55.434;38.520;2024-01-30T05:32:34;20.60;;;11.20;;
47760;SDS011;33524;55.434;38.520;2024-01-30T05:35:02;16.92;;;10.40;;
47760;SDS011;33524;55.434;38.520;2024-01-30T05:37:31;19.67;;;11.05;;
47760;SDS011;33524;55.434;38.520;2024-01-30T05:39:59;18.10;;;12.05;;
47760;SDS011;33524;55.434;38.520;2024-01-30T05:42:27;19.92;;;11.90;;
47760;SDS011;33524;55.434;38.520;2024-01-30T05:44:56;19.62;;;11.80;;
47760;SDS011;33524;55.434;38.520;2024-01-30T05:47:24;19.35;;;12.07;;
47760;SDS011;33524;55.434;38.520;2024-01-30T05:49:52;18.40;;;10.63;;
47760;SDS011;33524;55.434;38.520;2024-01-30T05:52:21;18.23;;;10.88;;
47760;SDS011;33524;55.434;38.520;2024-01-30T05:54:49;19.25;;;10.70;;
47760;SDS011;33524;55.434;38.520;2024-01-30T05:57:17;19.87;;;12.80;;
47760;SDS011;33524;55.434;38.520;2024-01-30T05:59:45;20.75;;;12.73;;
47760;SDS011;33524;55.434;38.520;2024-01-30T06:02:15;22.27;;;12.63;;
47760;SDS011;33524;55.434;38.520;2024-01-30T06:04:43;21.90;;;11.55;;
47760;SDS011;33524;55.434;38.520;2024-01-30T06:07:11;18.27;;;11.35;;
47760;SDS011;33524;55.434;38.520;2024-01-30T06:09:40;19.65;;;10.48;;
47760;SDS011;33524;55.434;38.520;2024-01-30T06:12:08;17.12;;;10.40;;
47760;SDS011;33524;55.434;38.520;2024-01-30T06:14:42;19.20;;;11.20;;
47760;SDS011;33524;55.434;38.520;2024-01-30T06:17:13;21.08;;;10.50;;
47760;SDS011;33524;55.434;38.520;2024-01-30T06:19:42;19.50;;;9.48;;
47760;SDS011;33524;55.434;38.520;2024-01-30T06:22:10;14.52;;;9.60;;
47760;SDS011;33524;55.434;38.520;2024-01-30T06:24:39;19.15;;;11.05;;
47760;SDS011;33524;55.434;38.520;2024-01-30T06:27:07;18.23;;;10.48;;
47760;SDS011;33524;55.434;38.520;2024-01-30T06:29:35;17.00;;;10.55;;
47760;SDS011;33524;55.434;38.520;2024-01-30T06:32:04;17.62;;;10.90;;
47760;SDS011;33524;55.434;38.520;2024-01-30T06:34:35;15.88;;;10.85;;
47760;SDS011;33524;55.434;38.520;2024-01-30T06:37:04;18.62;;;11.02;;
47760;SDS011;33524;55.434;38.520;2024-01-30T06:39:32;18.95;;;11.32;;
47760;SDS011;33524;55.434;38.520;2024-01-30T06:42:00;13.27;;;9.32;;
47760;SDS011;33524;55.434;38.520;2024-01-30T06:44:28;18.87;;;11.70;;
47760;SDS011;33524;55.434;38.520;2024-01-30T06:46:59;17.42;;;9.93;;
47760;SDS011;33524;55.434;38.520;2024-01-30T06:49:28;18.02;;;10.75;;
47760;SDS011;33524;55.434;38.520;2024-01-30T06:51:56;18.08;;;10.02;;
47760;SDS011;33524;55.434;38.520;2024-01-30T06:54:24;16.17;;;9.07;;
47760;SDS011;33524;55.434;38.520;2024-01-30T06:56:52;17.80;;;10.15;;
47760;SDS011;33524;55.434;38.520;2024-01-30T06:59:20;18.73;;;10.73;;
47760;SDS011;33524;55.434;38.520;2024-01-30T07:01:48;17.37;;;11.02;;
47760;SDS011;33524;55.434;38.520;2024-01-30T07:04:18;19.75;;;10.00;;
47760;SDS011;33524;55.434;38.520;2024-01-30T07:06:46;15.60;;;8.82;;
47760;SDS011;33524;55.434;38.520;2024-01-30T07:09:14;14.93;;;8.50;;
47760;SDS011;33524;55.434;38.520;2024-01-30T07:11:42;22.65;;;11.35;;
47760;SDS011;33524;55.434;38.520;2024-01-30T07:14:10;14.38;;;9.60;;
47760;SDS011;33524;55.434;38.520;2024-01-30T07:16:38;17.60;;;10.23;;
47760;SDS011;33524;55.434;38.520;2024-01-30T07:19:06;15.70;;;9.25;;
47760;SDS011;33524;55.434;38.520;2024-01-30T07:21:37;17.55;;;11.10;;
47760;SDS011;33524;55.434;38.520;2024-01-30T07:24:06;18.67;;;10.90;;
47760;SDS011;33524;55.434;38.520;2024-01-30T07:26:34;14.90;;;8.73;;
47760;SDS011;33524;55.434;38.520;2024-01-30T07:29:02;17.15;;;9.50;;
47760;SDS011;33524;55.434;38.520;2024-01-30T07:31:31;16.10;;;10.48;;
47760;SDS011;33524;55.434;38.520;2024-01-30T07:34:00;14.43;;;8.75;;
47760;SDS011;33524;55.434;38.520;2024-01-30T07:36:29;15.25;;;10.20;;
47760;SDS011;33524;55.434;38.520;2024-01-30T07:38:58;16.73;;;9.35;;
47760;SDS011;33524;55.434;38.520;2024-01-30T07:41:25;15.93;;;9.77;;
47760;SDS011;33524;55.434;38.520;2024-01-30T07:43:54;15.95;;;10.27;;
47760;SDS011;33524;55.434;38.520;2024-01-30T07:46:22;14.80;;;8.82;;
47760;SDS011;33524;55.434;38.520;2024-01-30T07:48:50;19.77;;;11.82;;
47760;SDS011;33524;55.434;38.520;2024-01-30T07:53:51;16.23;;;9.00;;
47760;SDS011;33524;55.434;38.520;2024-01-30T07:56:19;19.30;;;11.95;;
47760;SDS011;33524;55.434;38.520;2024-01-30T07:58:48;15.00;;;8.90;;
47760;SDS011;33524;55.434;38.520;2024-01-30T08:01:16;16.75;;;9.55;;
47760;SDS011;33524;55.434;38.520;2024-01-30T08:03:45;16.67;;;9.52;;
47760;SDS011;33524;55.434;38.520;2024-01-30T08:06:13;14.95;;;8.77;;
47760;SDS011;33524;55.434;38.520;2024-01-30T08:08:41;15.05;;;9.70;;
47760;SDS011;33524;55.434;38.520;2024-01-30T08:11:09;18.92;;;10.95;;
47760;SDS011;33524;55.434;38.520;2024-01-30T08:13:37;14.95;;;9.45;;
47760;SDS011;33524;55.434;38.520;2024-01-30T08:16:05;18.85;;;11.12;;
47760;SDS011;33524;55.434;38.520;2024-01-30T08:18:36;18.12;;;10.45;;
47760;SDS011;33524;55.434;38.520;2024-01-30T08:21:04;18.35;;;9.88;;
47760;SDS011;33524;55.434;38.520;2024-01-30T08:23:32;19.12;;;11.60;;
47760;SDS011;33524;55.434;38.520;2024-01-30T08:26:03;15.00;;;9.88;;
47760;SDS011;33524;55.434;38.520;2024-01-30T08:28:34;17.55;;;8.93;;
47760;SDS011;33524;55.434;38.520;2024-01-30T08:31:03;18.90;;;10.43;;
47760;SDS011;33524;55.434;38.520;2024-01-30T08:33:31;17.27;;;9.98;;
47760;SDS011;33524;55.434;38.520;2024-01-30T08:35:59;18.77;;;11.38;;
47760;SDS011;33524;55.434;38.520;2024-01-30T08:38:27;17.98;;;9.63;;
47760;SDS011;33524;55.434;38.520;2024-01-30T08:40:58;16.05;;;9.18;;
47760;SDS011;33524;55.434;38.520;2024-01-30T08:43:27;18.58;;;10.63;;
47760;SDS011;33524;55.434;38.520;2024-01-30T08:45:55;20.08;;;10.93;;
47760;SDS011;33524;55.434;38.520;2024-01-30T08:48:24;18.42;;;10.63;;
47760;SDS011;33524;55.434;38.520;2024-01-30T08:50:53;17.45;;;9.68;;
47760;SDS011;33524;55.434;38.520;2024-01-30T08:53:21;19.25;;;11.43;;
47760;SDS011;33524;55.434;38.520;2024-01-30T08:55:49;15.95;;;10.68;;
47760;SDS011;33524;55.434;38.520;2024-01-30T08:58:18;17.80;;;11.07;;
47760;SDS011;33524;55.434;38.520;2024-01-30T09:00:46;16.65;;;11.27;;
47760;SDS011;33524;55.434;38.520;2024-01-30T09:03:14;17.95;;;11.30;;
47760;SDS011;33524;55.434;38.520;2024-01-30T09:05:46;21.12;;;13.70;;
47760;SDS011;33524;55.434;38.520;2024-01-30T09:08:14;20.15;;;11.27;;
47760;SDS011;33524;55.434;38.520;2024-01-30T09:10:43;21.55;;;12.55;;
47760;SDS011;33524;55.434;38.520;2024-01-30T09:13:12;21.40;;;12.73;;
47760;SDS011;33524;55.434;38.520;2024-01-30T09:15:41;19.92;;;13.07;;
47760;SDS011;33524;55.434;38.520;2024-01-30T09:18:09;17.42;;;12.25;;
47760;SDS011;33524;55.434;38.520;2024-01-30T09:20:38;18.50;;;11.50;;
47760;SDS011;33524;55.434;38.520;2024-01-30T09:23:05;21.90;;;13.82;;
47760;SDS011;33524;55.434;38.520;2024-01-30T09:25:33;18.95;;;11.98;;
47760;SDS011;33524;55.434;38.520;2024-01-30T09:28:02;21.20;;;13.88;;
47760;SDS011;33524;55.434;38.520;2024-01-30T09:30:30;24.90;;;12.85;;
47760;SDS011;33524;55.434;38.520;2024-01-30T09:32:58;22.27;;;13.15;;
47760;SDS011;33524;55.434;38.520;2024-01-30T09:35:27;20.35;;;11.88;;
47760;SDS011;33524;55.434;38.520;2024-01-30T09:37:55;21.08;;;12.35;;
47760;SDS011;33524;55.434;38.520;2024-01-30T09:40:27;22.03;;;12.70;;
47760;SDS011;33524;55.434;38.520;2024-01-30T09:42:56;24.35;;;14.07;;
47760;SDS011;33524;55.434;38.520;2024-01-30T09:45:27;27.60;;;16.20;;
47760;SDS011;33524;55.434;38.520;2024-01-30T09:47:55;24.30;;;15.80;;
47760;SDS011;33524;55.434;38.520;2024-01-30T09:50:24;26.27;;;14.07;;
47760;SDS011;33524;55.434;38.520;2024-01-30T09:52:52;22.70;;;12.57;;
47760;SDS011;33524;55.434;38.520;2024-01-30T09:55:23;22.92;;;13.43;;
47760;SDS011;33524;55.434;38.520;2024-01-30T09:57:51;21.95;;;13.77;;
47760;SDS011;33524;55.434;38.520;2024-01-30T10:00:19;20.62;;;10.88;;
47760;SDS011;33524;55.434;38.520;2024-01-30T10:02:53;23.17;;;13.80;;
47760;SDS011;33524;55.434;38.520;2024-01-30T10:05:21;21.73;;;13.23;;
47760;SDS011;33524;55.434;38.520;2024-01-30T10:08:00;26.17;;;14.30;;
47760;SDS011;33524;55.434;38.520;2024-01-30T10:10:28;21.45;;;12.82;;
47760;SDS011;33524;55.434;38.520;2024-01-30T10:12:57;18.70;;;12.57;;
47760;SDS011;33524;55.434;38.520;2024-01-30T10:15:28;19.48;;;13.45;;
47760;SDS011;33524;55.434;38.520;2024-01-30T10:17:56;20.85;;;13.50;;
47760;SDS011;33524;55.434;38.520;2024-01-30T10:20:25;25.20;;;16.02;;
47760;SDS011;33524;55.434;38.520;2024-01-30T10:22:56;23.15;;;13.70;;
47760;SDS011;33524;55.434;38.520;2024-01-30T10:25:25;20.65;;;13.32;;
47760;SDS011;33524;55.434;38.520;2024-01-30T10:27:59;23.60;;;14.07;;
47760;SDS011;33524;55.434;38.520;2024-01-30T10:30:30;22.98;;;14.75;;
47760;SDS011;33524;55.434;38.520;2024-01-30T10:32:58;21.10;;;12.00;;
47760;SDS011;33524;55.434;38.520;2024-01-30T10:35:30;25.12;;;15.50;;
47760;SDS011;33524;55.434;38.520;2024-01-30T10:38:01;23.15;;;14.07;;
47760;SDS011;33524;55.434;38.520;2024-01-30T10:40:30;24.10;;;15.27;;
47760;SDS011;33524;55.434;38.520;2024-01-30T10:43:02;23.10;;;15.05;;
47760;SDS011;33524;55.434;38.520;2024-01-30T10:45:31;26.45;;;14.87;;
47760;SDS011;33524;55.434;38.520;2024-01-30T10:48:00;21.85;;;13.70;;
47760;SDS011;33524;55.434;38.520;2024-01-30T10:50:31;30.27;;;14.52;;
47760;SDS011;33524;55.434;38.520;2024-01-30T10:53:08;25.42;;;13.38;;
47760;SDS011;33524;55.434;38.520;2024-01-30T10:55:37;17.92;;;10.98;;
47760;SDS011;33524;55.434;38.520;2024-01-30T10:58:07;21.98;;;14.30;;
47760;SDS011;33524;55.434;38.520;2024-01-30T11:00:38;27.83;;;15.57;;
47760;SDS011;33524;55.434;38.520;2024-01-30T11:03:06;25.77;;;13.32;;
47760;SDS011;33524;55.434;38.520;2024-01-30T11:05:35;17.98;;;11.88;;
47760;SDS011;33524;55.434;38.520;2024-01-30T11:08:13;20.10;;;12.30;;
47760;SDS011;33524;55.434;38.520;2024-01-30T11:10:46;21.45;;;12.30;;
47760;SDS011;33524;55.434;38.520;2024-01-30T11:13:15;21.98;;;12.15;;
47760;SDS011;33524;55.434;38.520;2024-01-30T11:15:44;21.25;;;13.18;;
47760;SDS011;33524;55.434;38.520;2024-01-30T11:21:17;26.20;;;14.05;;
47760;SDS011;33524;55.434;38.520;2024-01-30T11:23:46;17.15;;;11.82;;
47760;SDS011;33524;55.434;38.520;2024-01-30T11:26:15;22.42;;;13.98;;
47760;SDS011;33524;55.434;38.520;2024-01-30T11:28:44;17.98;;;10.00;;
47760;SDS011;33524;55.434;38.520;2024-01-30T11:31:21;19.20;;;11.43;;
47760;SDS011;33524;55.434;38.520;2024-01-30T11:33:52;22.08;;;12.50;;
47760;SDS011;33524;55.434;38.520;2024-01-30T11:36:25;18.87;;;11.93;;
47760;SDS011;33524;55.434;38.520;2024-01-30T11:38:54;22.52;;;11.93;;
47760;SDS011;33524;55.434;38.520;2024-01-30T11:41:25;25.10;;;14.25;;
47760;SDS011;33524;55.434;38.520;2024-01-30T11:43:55;23.35;;;12.27;;
47760;SDS011;33524;55.434;38.520;2024-01-30T11:46:24;24.23;;;13.10;;
47760;SDS011;33524;55.434;38.520;2024-01-30T11:48:53;22.35;;;12.60;;
47760;SDS011;33524;55.434;38.520;2024-01-30T11:51:21;24.12;;;14.35;;
47760;SDS011;33524;55.434;38.520;2024-01-30T11:53:49;21.00;;;12.77;;
47760;SDS011;33524;55.434;38.520;2024-01-30T11:56:19;25.00;;;15.23;;
47760;SDS011;33524;55.434;38.520;2024-01-30T11:58:47;23.62;;;15.02;;
47760;SDS011;33524;55.434;38.520;2024-01-30T12:01:16;24.48;;;14.93;;
47760;SDS011;33524;55.434;38.520;2024-01-30T12:03:49;22.48;;;13.70;;
47760;SDS011;33524;55.434;38.520;2024-01-30T12:06:18;27.10;;;16.00;;
47760;SDS011;33524;55.434;38.520;2024-01-30T12:09:02;24.90;;;14.02;;
47760;SDS011;33524;55.434;38.520;2024-01-30T12:11:48;26.05;;;14.55;;
47760;SDS011;33524;55.434;38.520;2024-01-30T12:14:20;23.30;;;13.57;;
47760;SDS011;33524;55.434;38.520;2024-01-30T12:16:52;25.33;;;14.10;;
47760;SDS011;33524;55.434;38.520;2024-01-30T12:19:21;26.05;;;14.80;;
47760;SDS011;33524;55.434;38.520;2024-01-30T12:21:56;25.30;;;15.05;;
47760;SDS011;33524;55.434;38.520;2024-01-30T12:24:28;26.67;;;12.93;;
47760;SDS011;33524;55.434;38.520;2024-01-30T12:26:59;29.35;;;14.30;;
47760;SDS011;33524;55.434;38.520;2024-01-30T12:29:31;28.33;;;15.25;;
47760;SDS011;33524;55.434;38.520;2024-01-30T12:32:05;24.25;;;13.73;;
47760;SDS011;33524;55.434;38.520;2024-01-30T12:34:33;33.28;;;13.15;;
47760;SDS011;33524;55.434;38.520;2024-01-30T12:37:16;26.63;;;16.10;;
47760;SDS011;33524;55.434;38.520;2024-01-30T12:39:52;25.00;;;13.10;;
47760;SDS011;33524;55.434;38.520;2024-01-30T12:42:23;24.30;;;14.30;;
47760;SDS011;33524;55.434;38.520;2024-01-30T12:44:52;27.70;;;14.80;;
47760;SDS011;33524;55.434;38.520;2024-01-30T12:47:23;27.77;;;16.08;;
47760;SDS011;33524;55.434;38.520;2024-01-30T12:49:51;31.10;;;16.42;;
47760;SDS011;33524;55.434;38.520;2024-01-30T12:52:22;27.83;;;16.83;;
47760;SDS011;33524;55.434;38.520;2024-01-30T12:54:50;24.52;;;15.40;;
47760;SDS011;33524;55.434;38.520;2024-01-30T12:57:19;30.62;;;15.90;;
47760;SDS011;33524;55.434;38.520;2024-01-30T12:59:48;25.60;;;14.32;;
47760;SDS011;33524;55.434;38.520;2024-01-30T13:02:17;25.42;;;14.60;;
47760;SDS011;33524;55.434;38.520;2024-01-30T13:04:45;22.80;;;13.98;;
47760;SDS011;33524;55.434;38.520;2024-01-30T13:07:16;22.92;;;15.35;;
47760;SDS011;33524;55.434;38.520;2024-01-30T13:09:45;23.77;;;13.98;;
47760;SDS011;33524;55.434;38.520;2024-01-30T13:12:13;28.77;;;15.15;;
47760;SDS011;33524;55.434;38.520;2024-01-30T13:14:42;22.45;;;13.40;;
47760;SDS011;33524;55.434;38.520;2024-01-30T13:17:10;30.27;;;14.90;;
47760;SDS011;33524;55.434;38.520;2024-01-30T13:19:38;25.27;;;13.15;;
47760;SDS011;33524;55.434;38.520;2024-01-30T13:22:06;26.83;;;14.85;;
47760;SDS011;33524;55.434;38.520;2024-01-30T13:24:34;27.90;;;14.73;;
47760;SDS011;33524;55.434;38.520;2024-01-30T13:27:03;20.65;;;13.10;;
47760;SDS011;33524;55.434;38.520;2024-01-30T13:29:33;22.92;;;14.27;;
47760;SDS011;33524;55.434;38.520;2024-01-30T13:32:01;29.08;;;15.48;;
47760;SDS011;33524;55.434;38.520;2024-01-30T13:34:30;23.77;;;15.20;;
47760;SDS011;33524;55.434;38.520;2024-01-30T13:36:58;30.40;;;14.95;;
47760;SDS011;33524;55.434;38.520;2024-01-30T13:39:27;26.75;;;14.30;;
47760;SDS011;33524;55.434;38.520;2024-01-30T13:42:05;25.62;;;15.05;;
47760;SDS011;33524;55.434;38.520;2024-01-30T13:44:33;25.48;;;14.80;;
47760;SDS011;33524;55.434;38.520;2024-01-30T13:47:03;29.98;;;14.38;;
47760;SDS011;33524;55.434;38.520;2024-01-30T13:49:31;26.23;;;15.63;;
47760;SDS011;33524;55.434;38.520;2024-01-30T13:52:00;29.27;;;14.87;;
47760;SDS011;33524;55.434;38.520;2024-01-30T13:54:28;24.52;;;15.60;;
47760;SDS011;33524;55.434;38.520;2024-01-30T13:56:57;27.45;;;17.30;;
47760;SDS011;33524;55.434;38.520;2024-01-30T13:59:25;31.55;;;18.73;;
47760;SDS011;33524;55.434;38.520;2024-01-30T14:01:53;39.05;;;22.17;;
47760;SDS011;33524;55.434;38.520;2024-01-30T14:04:22;33.88;;;19.30;;
47760;SDS011;33524;55.434;38.520;2024-01-30T14:06:50;32.10;;;18.98;;
47760;SDS011;33524;55.434;38.520;2024-01-30T14:09:34;34.38;;;19.95;;
47760;SDS011;33524;55.434;38.520;2024-01-30T14:12:06;34.13;;;22.35;;
47760;SDS011;33524;55.434;38.520;2024-01-30T14:14:35;31.33;;;20.77;;
47760;SDS011;33524;55.434;38.520;2024-01-30T14:17:04;34.67;;;22.10;;
47760;SDS011;33524;55.434;38.520;2024-01-30T14:19:34;35.45;;;21.58;;
47760;SDS011;33524;55.434;38.520;2024-01-30T14:22:04;32.38;;;19.85;;
47760;SDS011;33524;55.434;38.520;2024-01-30T14:24:32;32.92;;;19.40;;
47760;SDS011;33524;55.434;38.520;2024-01-30T14:27:00;36.50;;;19.95;;
47760;SDS011;33524;55.434;38.520;2024-01-30T14:29:28;36.85;;;21.23;;